sensor_id;sensor_type;location;lat;lon;timestamp;P1;durP1;ratioP1;P2;durP2;ratioP2
39994;SDS011;25686;51.908;10.418;2022-10-16T00:01:16;1.85;;;1.75;;
39994;SDS011;25686;51.908;10.418;2022-10-16T00:03:18;3.20;;;1.80;;
39994;SDS011;25686;51.908;10.418;2022-10-16T00:05:19;3.40;;;1.92;;
39994;SDS011;25686;51.908;10.418;2022-10-16T00:07:19;3.50;;;1.90;;
39994;SDS011;25686;51.908;10.418;2022-10-16T00:09:20;2.40;;;1.92;;
39994;SDS011;25686;51.908;10.418;2022-10-16T00:11:23;2.83;;;1.65;;
39994;SDS011;25686;51.908;10.418;2022-10-16T00:13:24;3.42;;;1.88;;
39994;SDS011;25686;51.908;10.418;2022-10-16T00:15:25;2.00;;;1.90;;
39994;SDS011;25686;51.908;10.418;2022-10-16T00:17:26;2.72;;;1.90;;
39994;SDS011;25686;51.908;10.418;2022-10-16T00:19:27;4.43;;;2.10;;
39994;SDS011;25686;51.908;10.418;2022-10-16T00:21:28;2.50;;;2.03;;
39994;SDS011;25686;51.908;10.418;2022-10-16T00:23:30;3.20;;;1.80;;
39994;SDS011;25686;51.908;10.418;2022-10-16T00:25:31;3.05;;;1.88;;
39994;SDS011;25686;51.908;10.418;2022-10-16T00:27:33;2.20;;;2.00;;
39994;SDS011;25686;51.908;10.418;2022-10-16T00:29:34;4.40;;;1.98;;
39994;SDS011;25686;51.908;10.418;2022-10-16T00:31:35;3.42;;;2.10;;
39994;SDS011;25686;51.908;10.418;2022-10-16T00:33:36;4.65;;;2.03;;
39994;SDS011;25686;51.908;10.418;2022-10-16T00:35:37;2.17;;;1.98;;
39994;SDS011;25686;51.908;10.418;2022-10-16T00:37:38;3.97;;;2.00;;
39994;SDS011;25686;51.908;10.418;2022-10-16T00:39:39;3.38;;;2.20;;
39994;SDS011;25686;51.908;10.418;2022-10-16T00:41:40;6.50;;;2.78;;
39994;SDS011;25686;51.908;10.418;2022-10-16T00:43:42;5.13;;;2.50;;
39994;SDS011;25686;51.908;10.418;2022-10-16T00:45:43;2.50;;;2.20;;
39994;SDS011;25686;51.908;10.418;2022-10-16T00:47:45;3.67;;;2.45;;
39994;SDS011;25686;51.908;10.418;2022-10-16T00:49:49;6.85;;;2.55;;
39994;SDS011;25686;51.908;10.418;2022-10-16T00:51:51;3.55;;;2.60;;
39994;SDS011;25686;51.908;10.418;2022-10-16T00:53:54;4.05;;;2.65;;
39994;SDS011;25686;51.908;10.418;2022-10-16T00:55:55;5.15;;;2.38;;
39994;SDS011;25686;51.908;10.418;2022-10-16T00:57:56;4.45;;;2.55;;
39994;SDS011;25686;51.908;10.418;2022-10-16T00:59:58;4.60;;;2.75;;
39994;SDS011;25686;51.908;10.418;2022-10-16T01:01:59;4.50;;;2.90;;
39994;SDS011;25686;51.908;10.418;2022-10-16T01:04:00;5.78;;;2.70;;
39994;SDS011;25686;51.908;10.418;2022-10-16T01:08:34;4.13;;;2.72;;
39994;SDS011;25686;51.908;10.418;2022-10-16T01:10:45;3.13;;;2.60;;
39994;SDS011;25686;51.908;10.418;2022-10-16T01:12:55;2.65;;;2.45;;
39994;SDS011;25686;51.908;10.418;2022-10-16T01:15:04;5.28;;;2.90;;
39994;SDS011;25686;51.908;10.418;2022-10-16T01:17:08;3.22;;;2.92;;
39994;SDS011;25686;51.908;10.418;2022-10-16T01:19:17;3.28;;;2.80;;
39994;SDS011;25686;51.908;10.418;2022-10-16T01:25:29;3.53;;;2.80;;
39994;SDS011;25686;51.908;10.418;2022-10-16T01:27:32;5.78;;;2.92;;
39994;SDS011;25686;51.908;10.418;2022-10-16T01:32:28;6.30;;;3.15;;
39994;SDS011;25686;51.908;10.418;2022-10-16T01:34:47;3.92;;;3.00;;
39994;SDS011;25686;51.908;10.418;2022-10-16T01:36:47;6.05;;;3.20;;
39994;SDS011;25686;51.908;10.418;2022-10-16T01:38:50;4.53;;;3.15;;
39994;SDS011;25686;51.908;10.418;2022-10-16T01:40:54;3.70;;;3.35;;
39994;SDS011;25686;51.908;10.418;2022-10-16T01:43:03;3.53;;;3.22;;
39994;SDS011;25686;51.908;10.418;2022-10-16T01:45:05;4.18;;;3.78;;
39994;SDS011;25686;51.908;10.418;2022-10-16T01:47:08;4.75;;;3.40;;
39994;SDS011;25686;51.908;10.418;2022-10-16T01:49:10;5.82;;;3.05;;
39994;SDS011;25686;51.908;10.418;2022-10-16T01:51:14;4.65;;;3.33;;
39994;SDS011;25686;51.908;10.418;2022-10-16T01:53:15;3.13;;;2.90;;
39994;SDS011;25686;51.908;10.418;2022-10-16T01:55:19;4.90;;;3.67;;
39994;SDS011;25686;51.908;10.418;2022-10-16T01:57:21;4.45;;;3.60;;
39994;SDS011;25686;51.908;10.418;2022-10-16T01:59:23;4.07;;;3.40;;
39994;SDS011;25686;51.908;10.418;2022-10-16T02:01:26;4.53;;;3.38;;
39994;SDS011;25686;51.908;10.418;2022-10-16T02:03:28;5.78;;;3.63;;
39994;SDS011;25686;51.908;10.418;2022-10-16T02:05:40;5.20;;;3.38;;
39994;SDS011;25686;51.908;10.418;2022-10-16T02:07:42;3.22;;;2.92;;
39994;SDS011;25686;51.908;10.418;2022-10-16T02:09:43;4.40;;;3.13;;
39994;SDS011;25686;51.908;10.418;2022-10-16T02:11:44;5.05;;;3.17;;
39994;SDS011;25686;51.908;10.418;2022-10-16T02:13:51;3.45;;;2.97;;
39994;SDS011;25686;51.908;10.418;2022-10-16T02:15:54;8.25;;;3.80;;
39994;SDS011;25686;51.908;10.418;2022-10-16T02:17:54;4.15;;;2.83;;
39994;SDS011;25686;51.908;10.418;2022-10-16T02:19:56;8.80;;;3.10;;
39994;SDS011;25686;51.908;10.418;2022-10-16T02:22:00;4.22;;;3.10;;
39994;SDS011;25686;51.908;10.418;2022-10-16T02:24:05;4.60;;;2.90;;
39994;SDS011;25686;51.908;10.418;2022-10-16T02:26:10;5.82;;;2.90;;
39994;SDS011;25686;51.908;10.418;2022-10-16T02:28:17;6.03;;;3.15;;
39994;SDS011;25686;51.908;10.418;2022-10-16T02:32:21;5.25;;;2.85;;
39994;SDS011;25686;51.908;10.418;2022-10-16T02:34:24;3.90;;;2.85;;
39994;SDS011;25686;51.908;10.418;2022-10-16T02:36:26;4.00;;;3.30;;
39994;SDS011;25686;51.908;10.418;2022-10-16T02:38:27;3.20;;;2.90;;
39994;SDS011;25686;51.908;10.418;2022-10-16T02:40:30;6.03;;;2.80;;
39994;SDS011;25686;51.908;10.418;2022-10-16T02:42:35;5.03;;;2.90;;
39994;SDS011;25686;51.908;10.418;2022-10-16T02:44:36;4.18;;;2.72;;
39994;SDS011;25686;51.908;10.418;2022-10-16T02:46:37;4.80;;;2.92;;
39994;SDS011;25686;51.908;10.418;2022-10-16T02:48:38;4.55;;;2.97;;
39994;SDS011;25686;51.908;10.418;2022-10-16T02:50:39;3.25;;;2.88;;
39994;SDS011;25686;51.908;10.418;2022-10-16T02:52:40;6.55;;;3.08;;
39994;SDS011;25686;51.908;10.418;2022-10-16T02:54:41;4.25;;;2.83;;
39994;SDS011;25686;51.908;10.418;2022-10-16T02:56:42;4.43;;;3.00;;
39994;SDS011;25686;51.908;10.418;2022-10-16T02:58:42;4.28;;;3.10;;
39994;SDS011;25686;51.908;10.418;2022-10-16T03:00:43;4.45;;;3.00;;
39994;SDS011;25686;51.908;10.418;2022-10-16T03:02:44;2.92;;;2.72;;
39994;SDS011;25686;51.908;10.418;2022-10-16T03:04:46;3.67;;;2.90;;
39994;SDS011;25686;51.908;10.418;2022-10-16T03:06:47;5.13;;;3.30;;
39994;SDS011;25686;51.908;10.418;2022-10-16T03:08:48;6.90;;;3.47;;
39994;SDS011;25686;51.908;10.418;2022-10-16T03:10:49;5.75;;;2.70;;
39994;SDS011;25686;51.908;10.418;2022-10-16T03:12:50;5.25;;;2.65;;
39994;SDS011;25686;51.908;10.418;2022-10-16T03:14:51;9.02;;;3.30;;
39994;SDS011;25686;51.908;10.418;2022-10-16T03:16:52;4.75;;;2.88;;
39994;SDS011;25686;51.908;10.418;2022-10-16T03:18:53;3.67;;;3.00;;
39994;SDS011;25686;51.908;10.418;2022-10-16T03:20:54;4.50;;;3.00;;
39994;SDS011;25686;51.908;10.418;2022-10-16T03:22:55;4.05;;;2.95;;
39994;SDS011;25686;51.908;10.418;2022-10-16T03:24:56;4.07;;;2.78;;
39994;SDS011;25686;51.908;10.418;2022-10-16T03:26:57;3.85;;;2.83;;
39994;SDS011;25686;51.908;10.418;2022-10-16T03:28:58;3.63;;;3.03;;
39994;SDS011;25686;51.908;10.418;2022-10-16T03:30:59;4.10;;;3.20;;
39994;SDS011;25686;51.908;10.418;2022-10-16T03:33:00;7.25;;;3.25;;
39994;SDS011;25686;51.908;10.418;2022-10-16T03:35:01;8.45;;;3.45;;
39994;SDS011;25686;51.908;10.418;2022-10-16T03:37:02;4.78;;;3.38;;
39994;SDS011;25686;51.908;10.418;2022-10-16T03:39:03;3.40;;;3.10;;
39994;SDS011;25686;51.908;10.418;2022-10-16T03:41:04;3.40;;;3.10;;
39994;SDS011;25686;51.908;10.418;2022-10-16T03:43:05;4.70;;;3.20;;
39994;SDS011;25686;51.908;10.418;2022-10-16T03:45:06;8.35;;;3.20;;
39994;SDS011;25686;51.908;10.418;2022-10-16T03:47:07;6.07;;;2.97;;
39994;SDS011;25686;51.908;10.418;2022-10-16T03:49:08;8.32;;;3.03;;
39994;SDS011;25686;51.908;10.418;2022-10-16T03:51:09;7.22;;;3.28;;
39994;SDS011;25686;51.908;10.418;2022-10-16T03:53:10;8.93;;;3.05;;
39994;SDS011;25686;51.908;10.418;2022-10-16T03:55:11;4.07;;;3.20;;
39994;SDS011;25686;51.908;10.418;2022-10-16T03:57:12;7.18;;;2.95;;
39994;SDS011;25686;51.908;10.418;2022-10-16T03:59:13;4.85;;;3.38;;
39994;SDS011;25686;51.908;10.418;2022-10-16T04:01:14;4.10;;;2.83;;
39994;SDS011;25686;51.908;10.418;2022-10-16T04:03:15;5.13;;;2.90;;
39994;SDS011;25686;51.908;10.418;2022-10-16T04:05:17;8.48;;;3.28;;
39994;SDS011;25686;51.908;10.418;2022-10-16T04:07:18;3.60;;;3.05;;
39994;SDS011;25686;51.908;10.418;2022-10-16T04:09:19;5.05;;;2.70;;
39994;SDS011;25686;51.908;10.418;2022-10-16T04:11:20;3.63;;;2.90;;
39994;SDS011;25686;51.908;10.418;2022-10-16T04:13:21;7.00;;;3.60;;
39994;SDS011;25686;51.908;10.418;2022-10-16T04:15:22;6.63;;;3.40;;
39994;SDS011;25686;51.908;10.418;2022-10-16T04:17:23;4.28;;;3.20;;
39994;SDS011;25686;51.908;10.418;2022-10-16T04:19:24;4.82;;;3.20;;
39994;SDS011;25686;51.908;10.418;2022-10-16T04:21:26;4.78;;;3.50;;
39994;SDS011;25686;51.908;10.418;2022-10-16T04:23:26;4.45;;;3.53;;
39994;SDS011;25686;51.908;10.418;2022-10-16T04:25:28;6.30;;;3.15;;
39994;SDS011;25686;51.908;10.418;2022-10-16T04:27:29;7.97;;;3.63;;
39994;SDS011;25686;51.908;10.418;2022-10-16T04:29:31;6.88;;;3.50;;
39994;SDS011;25686;51.908;10.418;2022-10-16T04:31:32;4.55;;;3.20;;
39994;SDS011;25686;51.908;10.418;2022-10-16T04:33:33;5.50;;;3.15;;
39994;SDS011;25686;51.908;10.418;2022-10-16T04:35:34;3.92;;;2.88;;
39994;SDS011;25686;51.908;10.418;2022-10-16T04:37:35;3.65;;;3.28;;
39994;SDS011;25686;51.908;10.418;2022-10-16T04:39:36;5.50;;;3.58;;
39994;SDS011;25686;51.908;10.418;2022-10-16T04:41:37;3.25;;;2.95;;
39994;SDS011;25686;51.908;10.418;2022-10-16T04:43:38;4.05;;;3.30;;
39994;SDS011;25686;51.908;10.418;2022-10-16T04:45:38;3.55;;;2.90;;
39994;SDS011;25686;51.908;10.418;2022-10-16T04:47:39;5.20;;;2.97;;
39994;SDS011;25686;51.908;10.418;2022-10-16T04:49:40;3.35;;;2.90;;
39994;SDS011;25686;51.908;10.418;2022-10-16T04:51:41;2.72;;;2.50;;
39994;SDS011;25686;51.908;10.418;2022-10-16T04:53:42;6.20;;;3.10;;
39994;SDS011;25686;51.908;10.418;2022-10-16T04:55:43;4.93;;;2.40;;
39994;SDS011;25686;51.908;10.418;2022-10-16T04:57:44;3.00;;;2.65;;
39994;SDS011;25686;51.908;10.418;2022-10-16T04:59:45;6.45;;;2.80;;
39994;SDS011;25686;51.908;10.418;2022-10-16T05:01:46;6.82;;;2.88;;
39994;SDS011;25686;51.908;10.418;2022-10-16T05:03:47;3.45;;;2.83;;
39994;SDS011;25686;51.908;10.418;2022-10-16T05:05:48;5.82;;;2.55;;
39994;SDS011;25686;51.908;10.418;2022-10-16T05:07:49;4.32;;;2.30;;
39994;SDS011;25686;51.908;10.418;2022-10-16T05:09:50;3.42;;;2.25;;
39994;SDS011;25686;51.908;10.418;2022-10-16T05:11:51;5.05;;;2.60;;
39994;SDS011;25686;51.908;10.418;2022-10-16T05:13:52;4.72;;;2.70;;
39994;SDS011;25686;51.908;10.418;2022-10-16T05:15:53;2.63;;;2.30;;
39994;SDS011;25686;51.908;10.418;2022-10-16T05:17:54;4.40;;;2.80;;
39994;SDS011;25686;51.908;10.418;2022-10-16T05:19:55;3.30;;;2.50;;
39994;SDS011;25686;51.908;10.418;2022-10-16T05:21:56;4.20;;;2.42;;
39994;SDS011;25686;51.908;10.418;2022-10-16T05:23:57;3.33;;;2.47;;
39994;SDS011;25686;51.908;10.418;2022-10-16T05:25:58;4.53;;;2.17;;
39994;SDS011;25686;51.908;10.418;2022-10-16T05:27:59;2.97;;;2.22;;
39994;SDS011;25686;51.908;10.418;2022-10-16T05:30:00;4.70;;;2.35;;
39994;SDS011;25686;51.908;10.418;2022-10-16T05:32:01;3.67;;;2.45;;
39994;SDS011;25686;51.908;10.418;2022-10-16T05:34:02;2.85;;;2.15;;
39994;SDS011;25686;51.908;10.418;2022-10-16T05:36:04;2.90;;;2.00;;
39994;SDS011;25686;51.908;10.418;2022-10-16T05:38:06;5.80;;;2.10;;
39994;SDS011;25686;51.908;10.418;2022-10-16T05:40:07;3.47;;;2.08;;
39994;SDS011;25686;51.908;10.418;2022-10-16T05:42:08;4.32;;;2.03;;
39994;SDS011;25686;51.908;10.418;2022-10-16T05:44:09;3.20;;;1.90;;
39994;SDS011;25686;51.908;10.418;2022-10-16T05:46:10;3.08;;;1.90;;
39994;SDS011;25686;51.908;10.418;2022-10-16T05:48:11;4.85;;;2.10;;
39994;SDS011;25686;51.908;10.418;2022-10-16T05:50:12;2.33;;;2.10;;
39994;SDS011;25686;51.908;10.418;2022-10-16T05:52:12;2.92;;;2.13;;
39994;SDS011;25686;51.908;10.418;2022-10-16T05:54:14;3.22;;;2.30;;
39994;SDS011;25686;51.908;10.418;2022-10-16T05:56:15;2.38;;;1.90;;
39994;SDS011;25686;51.908;10.418;2022-10-16T05:58:16;2.53;;;1.80;;
39994;SDS011;25686;51.908;10.418;2022-10-16T06:00:17;2.85;;;1.92;;
39994;SDS011;25686;51.908;10.418;2022-10-16T06:02:18;2.40;;;1.80;;
39994;SDS011;25686;51.908;10.418;2022-10-16T06:04:19;4.07;;;2.00;;
39994;SDS011;25686;51.908;10.418;2022-10-16T06:06:20;2.42;;;2.10;;
39994;SDS011;25686;51.908;10.418;2022-10-16T06:08:22;5.43;;;2.00;;
39994;SDS011;25686;51.908;10.418;2022-10-16T06:10:23;2.65;;;1.92;;
39994;SDS011;25686;51.908;10.418;2022-10-16T06:12:24;7.65;;;2.80;;
39994;SDS011;25686;51.908;10.418;2022-10-16T06:14:25;2.85;;;2.05;;
39994;SDS011;25686;51.908;10.418;2022-10-16T06:16:26;2.80;;;1.80;;
39994;SDS011;25686;51.908;10.418;2022-10-16T06:18:27;2.00;;;1.80;;
39994;SDS011;25686;51.908;10.418;2022-10-16T06:20:28;3.30;;;2.15;;
39994;SDS011;25686;51.908;10.418;2022-10-16T06:22:29;3.15;;;1.80;;
39994;SDS011;25686;51.908;10.418;2022-10-16T06:24:30;2.80;;;1.90;;
39994;SDS011;25686;51.908;10.418;2022-10-16T06:26:31;1.83;;;1.40;;
39994;SDS011;25686;51.908;10.418;2022-10-16T06:28:32;5.05;;;1.50;;
39994;SDS011;25686;51.908;10.418;2022-10-16T06:30:33;1.90;;;1.77;;
39994;SDS011;25686;51.908;10.418;2022-10-16T06:32:34;2.58;;;1.50;;
39994;SDS011;25686;51.908;10.418;2022-10-16T06:34:35;1.65;;;1.55;;
39994;SDS011;25686;51.908;10.418;2022-10-16T06:36:36;2.45;;;1.60;;
39994;SDS011;25686;51.908;10.418;2022-10-16T06:38:37;2.20;;;1.60;;
39994;SDS011;25686;51.908;10.418;2022-10-16T06:40:38;2.35;;;1.60;;
39994;SDS011;25686;51.908;10.418;2022-10-16T06:42:39;1.63;;;1.52;;
39994;SDS011;25686;51.908;10.418;2022-10-16T06:44:40;2.80;;;1.30;;
39994;SDS011;25686;51.908;10.418;2022-10-16T06:46:41;3.88;;;1.52;;
39994;SDS011;25686;51.908;10.418;2022-10-16T06:48:42;2.15;;;1.30;;
39994;SDS011;25686;51.908;10.418;2022-10-16T06:50:43;2.10;;;1.50;;
39994;SDS011;25686;51.908;10.418;2022-10-16T06:52:44;3.17;;;1.63;;
39994;SDS011;25686;51.908;10.418;2022-10-16T06:54:45;3.13;;;1.60;;
39994;SDS011;25686;51.908;10.418;2022-10-16T06:56:46;2.78;;;1.50;;
39994;SDS011;25686;51.908;10.418;2022-10-16T06:58:47;6.53;;;1.30;;
39994;SDS011;25686;51.908;10.418;2022-10-16T07:00:48;2.10;;;1.38;;
39994;SDS011;25686;51.908;10.418;2022-10-16T07:02:49;2.60;;;1.48;;
39994;SDS011;25686;51.908;10.418;2022-10-16T07:04:50;3.13;;;1.20;;
39994;SDS011;25686;51.908;10.418;2022-10-16T07:06:51;2.92;;;1.20;;
39994;SDS011;25686;51.908;10.418;2022-10-16T07:08:52;3.55;;;1.13;;
39994;SDS011;25686;51.908;10.418;2022-10-16T07:11:00;1.25;;;0.93;;
39994;SDS011;25686;51.908;10.418;2022-10-16T07:13:01;1.50;;;1.00;;
39994;SDS011;25686;51.908;10.418;2022-10-16T07:15:02;3.05;;;1.10;;
39994;SDS011;25686;51.908;10.418;2022-10-16T07:17:03;1.42;;;1.10;;
39994;SDS011;25686;51.908;10.418;2022-10-16T07:19:04;2.05;;;1.25;;
39994;SDS011;25686;51.908;10.418;2022-10-16T07:21:15;1.30;;;1.20;;
39994;SDS011;25686;51.908;10.418;2022-10-16T07:23:16;1.20;;;1.10;;
39994;SDS011;25686;51.908;10.418;2022-10-16T07:25:17;2.35;;;1.08;;
39994;SDS011;25686;51.908;10.418;2022-10-16T07:27:18;1.80;;;1.10;;
39994;SDS011;25686;51.908;10.418;2022-10-16T07:29:22;3.40;;;1.20;;
39994;SDS011;25686;51.908;10.418;2022-10-16T07:31:23;4.65;;;1.10;;
39994;SDS011;25686;51.908;10.418;2022-10-16T07:33:24;2.75;;;0.80;;
39994;SDS011;25686;51.908;10.418;2022-10-16T07:35:25;2.55;;;1.20;;
39994;SDS011;25686;51.908;10.418;2022-10-16T07:37:26;2.05;;;1.02;;
39994;SDS011;25686;51.908;10.418;2022-10-16T07:39:27;2.08;;;1.15;;
39994;SDS011;25686;51.908;10.418;2022-10-16T07:41:28;3.85;;;1.00;;
39994;SDS011;25686;51.908;10.418;2022-10-16T07:43:29;1.15;;;0.73;;
39994;SDS011;25686;51.908;10.418;2022-10-16T07:45:30;2.63;;;0.70;;
39994;SDS011;25686;51.908;10.418;2022-10-16T07:47:31;1.48;;;0.70;;
39994;SDS011;25686;51.908;10.418;2022-10-16T07:49:32;3.95;;;0.93;;
39994;SDS011;25686;51.908;10.418;2022-10-16T07:51:33;2.05;;;0.80;;
39994;SDS011;25686;51.908;10.418;2022-10-16T07:53:34;1.58;;;0.77;;
39994;SDS011;25686;51.908;10.418;2022-10-16T07:55:34;2.40;;;0.73;;
39994;SDS011;25686;51.908;10.418;2022-10-16T07:57:35;2.20;;;0.98;;
39994;SDS011;25686;51.908;10.418;2022-10-16T07:59:36;3.45;;;0.70;;
39994;SDS011;25686;51.908;10.418;2022-10-16T08:01:37;2.92;;;0.73;;
39994;SDS011;25686;51.908;10.418;2022-10-16T08:03:40;0.70;;;0.70;;
39994;SDS011;25686;51.908;10.418;2022-10-16T08:05:41;3.63;;;0.75;;
39994;SDS011;25686;51.908;10.418;2022-10-16T08:07:42;2.25;;;0.70;;
39994;SDS011;25686;51.908;10.418;2022-10-16T08:09:43;2.03;;;0.73;;
39994;SDS011;25686;51.908;10.418;2022-10-16T08:11:44;4.65;;;0.63;;
39994;SDS011;25686;51.908;10.418;2022-10-16T08:13:45;2.83;;;0.63;;
39994;SDS011;25686;51.908;10.418;2022-10-16T08:15:46;3.80;;;0.60;;
39994;SDS011;25686;51.908;10.418;2022-10-16T08:17:57;2.03;;;0.60;;
39994;SDS011;25686;51.908;10.418;2022-10-16T08:19:59;1.55;;;0.55;;
39994;SDS011;25686;51.908;10.418;2022-10-16T08:22:00;2.55;;;0.70;;
39994;SDS011;25686;51.908;10.418;2022-10-16T08:24:01;1.23;;;0.60;;
39994;SDS011;25686;51.908;10.418;2022-10-16T08:26:05;1.83;;;0.70;;
39994;SDS011;25686;51.908;10.418;2022-10-16T08:28:06;1.42;;;0.60;;
39994;SDS011;25686;51.908;10.418;2022-10-16T08:30:08;2.25;;;0.55;;
39994;SDS011;25686;51.908;10.418;2022-10-16T08:32:09;1.13;;;0.55;;
39994;SDS011;25686;51.908;10.418;2022-10-16T08:34:10;0.65;;;0.50;;
39994;SDS011;25686;51.908;10.418;2022-10-16T08:36:11;1.58;;;0.50;;
39994;SDS011;25686;51.908;10.418;2022-10-16T08:38:12;1.95;;;0.50;;
39994;SDS011;25686;51.908;10.418;2022-10-16T08:45:01;1.90;;;0.57;;
39994;SDS011;25686;51.908;10.418;2022-10-16T08:49:05;0.52;;;0.50;;
39994;SDS011;25686;51.908;10.418;2022-10-16T08:51:11;5.15;;;1.02;;
39994;SDS011;25686;51.908;10.418;2022-10-16T08:53:20;1.30;;;0.40;;
39994;SDS011;25686;51.908;10.418;2022-10-16T08:55:28;0.85;;;0.40;;
39994;SDS011;25686;51.908;10.418;2022-10-16T08:57:29;2.28;;;0.65;;
39994;SDS011;25686;51.908;10.418;2022-10-16T08:59:32;2.80;;;0.40;;
39994;SDS011;25686;51.908;10.418;2022-10-16T09:01:37;2.05;;;0.50;;
39994;SDS011;25686;51.908;10.418;2022-10-16T09:12:19;2.83;;;0.70;;
39994;SDS011;25686;51.908;10.418;2022-10-16T09:14:37;0.75;;;0.50;;
39994;SDS011;25686;51.908;10.418;2022-10-16T09:16:43;2.00;;;0.60;;
39994;SDS011;25686;51.908;10.418;2022-10-16T09:20:49;1.40;;;0.60;;
39994;SDS011;25686;51.908;10.418;2022-10-16T09:22:53;3.70;;;0.70;;
39994;SDS011;25686;51.908;10.418;2022-10-16T09:24:57;0.93;;;0.47;;
39994;SDS011;25686;51.908;10.418;2022-10-16T09:27:00;0.60;;;0.60;;
39994;SDS011;25686;51.908;10.418;2022-10-16T09:29:00;1.50;;;0.70;;
39994;SDS011;25686;51.908;10.418;2022-10-16T09:31:03;1.25;;;0.70;;
39994;SDS011;25686;51.908;10.418;2022-10-16T09:33:04;0.77;;;0.50;;
39994;SDS011;25686;51.908;10.418;2022-10-16T09:35:09;1.27;;;0.70;;
39994;SDS011;25686;51.908;10.418;2022-10-16T09:37:12;2.83;;;0.75;;
39994;SDS011;25686;51.908;10.418;2022-10-16T09:39:14;1.70;;;0.68;;
39994;SDS011;25686;51.908;10.418;2022-10-16T09:41:19;1.05;;;0.63;;
39994;SDS011;25686;51.908;10.418;2022-10-16T09:45:30;2.17;;;0.75;;
39994;SDS011;25686;51.908;10.418;2022-10-16T09:47:31;0.80;;;0.80;;
39994;SDS011;25686;51.908;10.418;2022-10-16T09:49:37;0.90;;;0.80;;
39994;SDS011;25686;51.908;10.418;2022-10-16T09:51:38;1.20;;;1.10;;
39994;SDS011;25686;51.908;10.418;2022-10-16T09:53:43;2.78;;;1.00;;
39994;SDS011;25686;51.908;10.418;2022-10-16T09:55:48;0.40;;;0.40;;
39994;SDS011;25686;51.908;10.418;2022-10-16T09:57:50;1.33;;;0.43;;
39994;SDS011;25686;51.908;10.418;2022-10-16T09:59:52;2.53;;;0.70;;
39994;SDS011;25686;51.908;10.418;2022-10-16T10:01:53;3.10;;;0.68;;
39994;SDS011;25686;51.908;10.418;2022-10-16T10:03:55;1.15;;;0.60;;
39994;SDS011;25686;51.908;10.418;2022-10-16T10:06:03;1.80;;;0.65;;
39994;SDS011;25686;51.908;10.418;2022-10-16T10:08:05;4.50;;;0.60;;
39994;SDS011;25686;51.908;10.418;2022-10-16T10:10:19;2.20;;;0.60;;
39994;SDS011;25686;51.908;10.418;2022-10-16T10:12:21;0.65;;;0.50;;
39994;SDS011;25686;51.908;10.418;2022-10-16T10:16:24;0.55;;;0.52;;
39994;SDS011;25686;51.908;10.418;2022-10-16T10:18:24;1.52;;;0.65;;
39994;SDS011;25686;51.908;10.418;2022-10-16T10:20:30;0.88;;;0.60;;
39994;SDS011;25686;51.908;10.418;2022-10-16T10:22:41;2.08;;;0.60;;
39994;SDS011;25686;51.908;10.418;2022-10-16T10:24:45;2.95;;;0.90;;
39994;SDS011;25686;51.908;10.418;2022-10-16T10:31:03;1.90;;;0.60;;
39994;SDS011;25686;51.908;10.418;2022-10-16T10:35:32;1.40;;;0.60;;
39994;SDS011;25686;51.908;10.418;2022-10-16T10:38:00;1.73;;;0.88;;
39994;SDS011;25686;51.908;10.418;2022-10-16T10:44:30;1.50;;;0.50;;
39994;SDS011;25686;51.908;10.418;2022-10-16T10:46:41;3.72;;;0.57;;
39994;SDS011;25686;51.908;10.418;2022-10-16T10:53:06;1.35;;;0.60;;
39994;SDS011;25686;51.908;10.418;2022-10-16T10:59:28;3.05;;;0.40;;
39994;SDS011;25686;51.908;10.418;2022-10-16T11:01:41;2.22;;;0.32;;
39994;SDS011;25686;51.908;10.418;2022-10-16T11:03:49;1.77;;;0.30;;
39994;SDS011;25686;51.908;10.418;2022-10-16T11:05:58;3.10;;;0.50;;
39994;SDS011;25686;51.908;10.418;2022-10-16T11:08:02;1.75;;;0.50;;
39994;SDS011;25686;51.908;10.418;2022-10-16T11:10:24;2.58;;;0.50;;
39994;SDS011;25686;51.908;10.418;2022-10-16T11:12:34;1.52;;;0.43;;
39994;SDS011;25686;51.908;10.418;2022-10-16T11:14:46;0.95;;;0.43;;
39994;SDS011;25686;51.908;10.418;2022-10-16T11:16:53;1.80;;;0.55;;
39994;SDS011;25686;51.908;10.418;2022-10-16T11:18:56;1.10;;;0.40;;
39994;SDS011;25686;51.908;10.418;2022-10-16T11:21:09;4.82;;;0.32;;
39994;SDS011;25686;51.908;10.418;2022-10-16T11:23:23;2.47;;;0.40;;
39994;SDS011;25686;51.908;10.418;2022-10-16T11:25:29;3.10;;;0.35;;
39994;SDS011;25686;51.908;10.418;2022-10-16T11:29:31;0.90;;;0.35;;
39994;SDS011;25686;51.908;10.418;2022-10-16T11:33:41;2.38;;;0.40;;
39994;SDS011;25686;51.908;10.418;2022-10-16T11:37:53;1.48;;;0.40;;
39994;SDS011;25686;51.908;10.418;2022-10-16T11:39:56;3.33;;;0.35;;
39994;SDS011;25686;51.908;10.418;2022-10-16T11:42:01;2.55;;;0.32;;
39994;SDS011;25686;51.908;10.418;2022-10-16T11:46:23;0.77;;;0.40;;
39994;SDS011;25686;51.908;10.418;2022-10-16T11:48:27;2.25;;;0.60;;
39994;SDS011;25686;51.908;10.418;2022-10-16T11:50:38;1.38;;;0.30;;
39994;SDS011;25686;51.908;10.418;2022-10-16T11:55:02;2.85;;;0.40;;
39994;SDS011;25686;51.908;10.418;2022-10-16T11:57:39;0.82;;;0.30;;
39994;SDS011;25686;51.908;10.418;2022-10-16T11:59:34;2.65;;;0.43;;
39994;SDS011;25686;51.908;10.418;2022-10-16T12:01:47;1.85;;;0.40;;
39994;SDS011;25686;51.908;10.418;2022-10-16T12:03:58;3.38;;;0.40;;
39994;SDS011;25686;51.908;10.418;2022-10-16T12:08:08;2.40;;;0.30;;
39994;SDS011;25686;51.908;10.418;2022-10-16T12:10:18;2.67;;;0.60;;
39994;SDS011;25686;51.908;10.418;2022-10-16T12:12:53;2.65;;;0.50;;
39994;SDS011;25686;51.908;10.418;2022-10-16T12:14:47;0.43;;;0.43;;
39994;SDS011;25686;51.908;10.418;2022-10-16T12:16:58;0.45;;;0.40;;
39994;SDS011;25686;51.908;10.418;2022-10-16T12:21:10;1.05;;;0.40;;
39994;SDS011;25686;51.908;10.418;2022-10-16T12:23:16;1.23;;;0.50;;
39994;SDS011;25686;51.908;10.418;2022-10-16T12:25:21;3.60;;;0.40;;
39994;SDS011;25686;51.908;10.418;2022-10-16T12:27:27;1.42;;;0.40;;
39994;SDS011;25686;51.908;10.418;2022-10-16T12:29:32;1.95;;;0.50;;
39994;SDS011;25686;51.908;10.418;2022-10-16T12:31:37;3.17;;;0.45;;
39994;SDS011;25686;51.908;10.418;2022-10-16T12:33:40;2.85;;;0.50;;
39994;SDS011;25686;51.908;10.418;2022-10-16T12:35:43;1.10;;;0.30;;
39994;SDS011;25686;51.908;10.418;2022-10-16T12:37:45;2.10;;;0.45;;
39994;SDS011;25686;51.908;10.418;2022-10-16T12:39:46;1.13;;;0.40;;
39994;SDS011;25686;51.908;10.418;2022-10-16T12:41:48;4.28;;;0.63;;
39994;SDS011;25686;51.908;10.418;2022-10-16T12:44:01;3.95;;;0.40;;
39994;SDS011;25686;51.908;10.418;2022-10-16T12:46:19;5.68;;;0.47;;
39994;SDS011;25686;51.908;10.418;2022-10-16T12:48:21;2.35;;;0.47;;
39994;SDS011;25686;51.908;10.418;2022-10-16T12:50:30;1.55;;;0.35;;
39994;SDS011;25686;51.908;10.418;2022-10-16T12:52:36;0.65;;;0.40;;
39994;SDS011;25686;51.908;10.418;2022-10-16T12:54:37;2.75;;;0.73;;
39994;SDS011;25686;51.908;10.418;2022-10-16T12:58:51;4.50;;;0.47;;
39994;SDS011;25686;51.908;10.418;2022-10-16T13:01:41;3.78;;;0.50;;
39994;SDS011;25686;51.908;10.418;2022-10-16T13:11:48;0.82;;;0.40;;
39994;SDS011;25686;51.908;10.418;2022-10-16T13:15:53;0.68;;;0.30;;
39994;SDS011;25686;51.908;10.418;2022-10-16T13:18:16;1.20;;;0.52;;
39994;SDS011;25686;51.908;10.418;2022-10-16T13:22:35;1.58;;;0.55;;
39994;SDS011;25686;51.908;10.418;2022-10-16T13:27:06;0.40;;;0.35;;
39994;SDS011;25686;51.908;10.418;2022-10-16T13:29:08;1.13;;;0.40;;
39994;SDS011;25686;51.908;10.418;2022-10-16T13:31:12;1.55;;;0.50;;
39994;SDS011;25686;51.908;10.418;2022-10-16T13:33:16;2.30;;;0.50;;
39994;SDS011;25686;51.908;10.418;2022-10-16T13:35:26;2.08;;;0.38;;